sensor_id;sensor_type;location;lat;lon;timestamp;P1;durP1;ratioP1;P2;durP2;ratioP2
30635;SDS011;17400;52.392;9.750;2023-06-01T00:00:05;10.60;;;4.13;;
30635;SDS011;17400;52.392;9.750;2023-06-01T00:02:36;8.82;;;3.90;;
30635;SDS011;17400;52.392;9.750;2023-06-01T00:05:04;8.95;;;3.63;;
30635;SDS011;17400;52.392;9.750;2023-06-01T00:07:33;6.80;;;3.38;;
30635;SDS011;17400;52.392;9.750;2023-06-01T00:10:03;9.32;;;3.30;;
30635;SDS011;17400;52.392;9.750;2023-06-01T00:12:31;5.43;;;3.10;;
30635;SDS011;17400;52.392;9.750;2023-06-01T00:14:59;4.78;;;3.15;;
30635;SDS011;17400;52.392;9.750;2023-06-01T00:17:27;4.75;;;2.97;;
30635;SDS011;17400;52.392;9.750;2023-06-01T00:19:57;8.65;;;3.65;;
30635;SDS011;17400;52.392;9.750;2023-06-01T00:22:27;6.20;;;3.03;;
30635;SDS011;17400;52.392;9.750;2023-06-01T00:25:02;7.55;;;3.50;;
30635;SDS011;17400;52.392;9.750;2023-06-01T00:27:30;7.35;;;3.22;;
30635;SDS011;17400;52.392;9.750;2023-06-01T00:29:58;6.93;;;3.42;;
30635;SDS011;17400;52.392;9.750;2023-06-01T00:32:26;11.05;;;4.07;;
30635;SDS011;17400;52.392;9.750;2023-06-01T00:34:54;7.60;;;3.40;;
30635;SDS011;17400;52.392;9.750;2023-06-01T00:37:22;5.43;;;3.50;;
30635;SDS011;17400;52.392;9.750;2023-06-01T00:39:50;8.88;;;3.55;;
30635;SDS011;17400;52.392;9.750;2023-06-01T00:42:19;8.20;;;4.53;;
30635;SDS011;17400;52.392;9.750;2023-06-01T00:44:47;7.55;;;3.60;;
30635;SDS011;17400;52.392;9.750;2023-06-01T00:47:15;8.15;;;3.65;;
30635;SDS011;17400;52.392;9.750;2023-06-01T00:49:43;11.38;;;3.22;;
30635;SDS011;17400;52.392;9.750;2023-06-01T00:52:11;9.57;;;3.35;;
30635;SDS011;17400;52.392;9.750;2023-06-01T00:54:40;6.60;;;3.97;;
30635;SDS011;17400;52.392;9.750;2023-06-01T00:57:08;6.00;;;3.40;;
30635;SDS011;17400;52.392;9.750;2023-06-01T00:59:37;6.72;;;3.03;;
30635;SDS011;17400;52.392;9.750;2023-06-01T01:02:05;6.07;;;3.67;;
30635;SDS011;17400;52.392;9.750;2023-06-01T01:04:34;10.07;;;3.85;;
30635;SDS011;17400;52.392;9.750;2023-06-01T01:07:05;7.60;;;3.72;;
30635;SDS011;17400;52.392;9.750;2023-06-01T01:09:39;8.00;;;3.47;;
30635;SDS011;17400;52.392;9.750;2023-06-01T01:12:14;6.53;;;3.33;;
30635;SDS011;17400;52.392;9.750;2023-06-01T01:14:51;5.97;;;3.90;;
30635;SDS011;17400;52.392;9.750;2023-06-01T01:17:26;6.47;;;3.65;;
30635;SDS011;17400;52.392;9.750;2023-06-01T01:20:01;7.15;;;4.07;;
30635;SDS011;17400;52.392;9.750;2023-06-01T01:25:52;11.73;;;5.13;;
30635;SDS011;17400;52.392;9.750;2023-06-01T01:28:41;8.32;;;3.83;;
30635;SDS011;17400;52.392;9.750;2023-06-01T01:31:11;7.93;;;4.00;;
30635;SDS011;17400;52.392;9.750;2023-06-01T01:33:41;10.95;;;4.38;;
30635;SDS011;17400;52.392;9.750;2023-06-01T01:36:11;9.63;;;4.53;;
30635;SDS011;17400;52.392;9.750;2023-06-01T01:38:40;13.90;;;5.22;;
30635;SDS011;17400;52.392;9.750;2023-06-01T01:41:07;11.25;;;4.65;;
30635;SDS011;17400;52.392;9.750;2023-06-01T01:43:35;8.43;;;3.72;;
30635;SDS011;17400;52.392;9.750;2023-06-01T01:46:07;8.57;;;3.97;;
30635;SDS011;17400;52.392;9.750;2023-06-01T01:48:47;9.88;;;3.72;;
30635;SDS011;17400;52.392;9.750;2023-06-01T01:51:20;9.13;;;3.80;;
30635;SDS011;17400;52.392;9.750;2023-06-01T01:53:54;6.18;;;2.83;;
30635;SDS011;17400;52.392;9.750;2023-06-01T01:56:23;8.02;;;3.63;;
30635;SDS011;17400;52.392;9.750;2023-06-01T01:58:53;7.15;;;4.72;;
30635;SDS011;17400;52.392;9.750;2023-06-01T02:01:24;9.32;;;4.57;;
30635;SDS011;17400;52.392;9.750;2023-06-01T02:04:01;8.63;;;3.28;;
30635;SDS011;17400;52.392;9.750;2023-06-01T02:06:31;9.23;;;4.35;;
30635;SDS011;17400;52.392;9.750;2023-06-01T02:08:59;9.95;;;3.92;;
30635;SDS011;17400;52.392;9.750;2023-06-01T02:11:27;9.27;;;4.32;;
30635;SDS011;17400;52.392;9.750;2023-06-01T02:13:56;4.93;;;2.97;;
30635;SDS011;17400;52.392;9.750;2023-06-01T02:16:25;8.10;;;3.53;;
30635;SDS011;17400;52.392;9.750;2023-06-01T02:18:53;11.05;;;4.40;;
30635;SDS011;17400;52.392;9.750;2023-06-01T02:21:24;10.15;;;4.07;;
30635;SDS011;17400;52.392;9.750;2023-06-01T02:23:52;7.53;;;3.90;;
30635;SDS011;17400;52.392;9.750;2023-06-01T02:26:20;8.50;;;3.60;;
30635;SDS011;17400;52.392;9.750;2023-06-01T02:28:48;9.80;;;4.53;;
30635;SDS011;17400;52.392;9.750;2023-06-01T02:31:16;8.90;;;4.15;;
30635;SDS011;17400;52.392;9.750;2023-06-01T02:33:45;10.95;;;4.35;;
30635;SDS011;17400;52.392;9.750;2023-06-01T02:36:13;10.43;;;3.70;;
30635;SDS011;17400;52.392;9.750;2023-06-01T02:38:42;7.00;;;4.40;;
30635;SDS011;17400;52.392;9.750;2023-06-01T02:41:11;8.27;;;3.50;;
30635;SDS011;17400;52.392;9.750;2023-06-01T02:43:40;7.22;;;4.35;;
30635;SDS011;17400;52.392;9.750;2023-06-01T02:46:07;10.50;;;3.70;;
30635;SDS011;17400;52.392;9.750;2023-06-01T02:48:35;6.00;;;3.17;;
30635;SDS011;17400;52.392;9.750;2023-06-01T02:51:05;11.52;;;3.85;;
30635;SDS011;17400;52.392;9.750;2023-06-01T02:53:33;8.07;;;4.53;;
30635;SDS011;17400;52.392;9.750;2023-06-01T02:56:01;11.85;;;4.07;;
30635;SDS011;17400;52.392;9.750;2023-06-01T02:58:29;10.05;;;4.15;;
30635;SDS011;17400;52.392;9.750;2023-06-01T03:00:57;8.45;;;3.83;;
30635;SDS011;17400;52.392;9.750;2023-06-01T03:03:25;8.13;;;3.63;;
30635;SDS011;17400;52.392;9.750;2023-06-01T03:05:54;4.97;;;3.08;;
30635;SDS011;17400;52.392;9.750;2023-06-01T03:08:24;6.28;;;3.45;;
30635;SDS011;17400;52.392;9.750;2023-06-01T03:10:52;6.85;;;3.50;;
30635;SDS011;17400;52.392;9.750;2023-06-01T03:13:21;6.20;;;3.63;;
30635;SDS011;17400;52.392;9.750;2023-06-01T03:15:49;8.10;;;3.53;;
30635;SDS011;17400;52.392;9.750;2023-06-01T03:18:18;8.35;;;3.70;;
30635;SDS011;17400;52.392;9.750;2023-06-01T03:20:46;7.25;;;3.42;;
30635;SDS011;17400;52.392;9.750;2023-06-01T03:23:15;6.38;;;3.85;;
30635;SDS011;17400;52.392;9.750;2023-06-01T03:25:45;6.93;;;3.65;;
30635;SDS011;17400;52.392;9.750;2023-06-01T03:28:13;9.25;;;4.75;;
30635;SDS011;17400;52.392;9.750;2023-06-01T03:30:41;11.32;;;4.38;;
30635;SDS011;17400;52.392;9.750;2023-06-01T03:33:09;8.63;;;4.25;;
30635;SDS011;17400;52.392;9.750;2023-06-01T03:35:37;7.57;;;3.50;;
30635;SDS011;17400;52.392;9.750;2023-06-01T03:38:05;6.40;;;4.10;;
30635;SDS011;17400;52.392;9.750;2023-06-01T03:40:33;5.70;;;3.67;;
30635;SDS011;17400;52.392;9.750;2023-06-01T03:43:02;8.57;;;4.13;;
30635;SDS011;17400;52.392;9.750;2023-06-01T03:45:30;12.05;;;4.35;;
30635;SDS011;17400;52.392;9.750;2023-06-01T03:47:58;8.13;;;4.47;;
30635;SDS011;17400;52.392;9.750;2023-06-01T03:50:25;9.35;;;3.85;;
30635;SDS011;17400;52.392;9.750;2023-06-01T03:52:53;11.48;;;4.38;;
30635;SDS011;17400;52.392;9.750;2023-06-01T03:55:21;7.20;;;4.32;;
30635;SDS011;17400;52.392;9.750;2023-06-01T03:57:49;12.95;;;4.15;;
30635;SDS011;17400;52.392;9.750;2023-06-01T04:00:20;9.27;;;4.03;;
30635;SDS011;17400;52.392;9.750;2023-06-01T04:02:50;7.28;;;3.83;;
30635;SDS011;17400;52.392;9.750;2023-06-01T04:05:20;7.85;;;4.32;;
30635;SDS011;17400;52.392;9.750;2023-06-01T04:07:49;7.47;;;3.20;;
30635;SDS011;17400;52.392;9.750;2023-06-01T04:10:18;9.02;;;4.50;;
30635;SDS011;17400;52.392;9.750;2023-06-01T04:12:48;9.02;;;4.40;;
30635;SDS011;17400;52.392;9.750;2023-06-01T04:15:20;9.50;;;3.95;;
30635;SDS011;17400;52.392;9.750;2023-06-01T04:17:49;10.52;;;4.78;;
30635;SDS011;17400;52.392;9.750;2023-06-01T04:20:17;7.32;;;4.38;;
30635;SDS011;17400;52.392;9.750;2023-06-01T04:22:45;9.27;;;4.90;;
30635;SDS011;17400;52.392;9.750;2023-06-01T04:25:14;9.07;;;4.28;;
30635;SDS011;17400;52.392;9.750;2023-06-01T04:27:45;6.38;;;3.65;;
30635;SDS011;17400;52.392;9.750;2023-06-01T04:30:14;8.02;;;4.00;;
30635;SDS011;17400;52.392;9.750;2023-06-01T04:32:45;9.68;;;3.83;;
30635;SDS011;17400;52.392;9.750;2023-06-01T04:35:15;5.55;;;2.83;;
30635;SDS011;17400;52.392;9.750;2023-06-01T04:37:43;5.95;;;2.88;;
30635;SDS011;17400;52.392;9.750;2023-06-01T04:40:13;8.20;;;3.17;;
30635;SDS011;17400;52.392;9.750;2023-06-01T04:42:42;10.20;;;3.80;;
30635;SDS011;17400;52.392;9.750;2023-06-01T04:45:12;6.00;;;3.42;;
30635;SDS011;17400;52.392;9.750;2023-06-01T04:47:42;6.25;;;3.38;;
30635;SDS011;17400;52.392;9.750;2023-06-01T04:50:15;4.90;;;2.60;;
30635;SDS011;17400;52.392;9.750;2023-06-01T04:52:43;8.45;;;3.45;;
30635;SDS011;17400;52.392;9.750;2023-06-01T04:55:11;11.75;;;5.45;;
30635;SDS011;17400;52.392;9.750;2023-06-01T04:57:40;9.23;;;3.70;;
30635;SDS011;17400;52.392;9.750;2023-06-01T05:00:10;6.53;;;3.17;;
30635;SDS011;17400;52.392;9.750;2023-06-01T05:02:40;7.05;;;3.08;;
30635;SDS011;17400;52.392;9.750;2023-06-01T05:05:10;7.22;;;2.53;;
30635;SDS011;17400;52.392;9.750;2023-06-01T05:07:40;8.63;;;3.30;;
30635;SDS011;17400;52.392;9.750;2023-06-01T05:10:09;8.07;;;3.95;;
30635;SDS011;17400;52.392;9.750;2023-06-01T05:12:39;6.47;;;3.15;;
30635;SDS011;17400;52.392;9.750;2023-06-01T05:15:07;4.50;;;2.45;;
30635;SDS011;17400;52.392;9.750;2023-06-01T05:17:37;5.20;;;2.60;;
30635;SDS011;17400;52.392;9.750;2023-06-01T05:20:07;5.50;;;2.65;;
30635;SDS011;17400;52.392;9.750;2023-06-01T05:22:38;5.70;;;2.95;;
30635;SDS011;17400;52.392;9.750;2023-06-01T05:25:07;13.52;;;3.08;;
30635;SDS011;17400;52.392;9.750;2023-06-01T05:27:37;10.93;;;3.58;;
30635;SDS011;17400;52.392;9.750;2023-06-01T05:30:06;8.55;;;3.30;;
30635;SDS011;17400;52.392;9.750;2023-06-01T05:32:35;6.15;;;3.15;;
30635;SDS011;17400;52.392;9.750;2023-06-01T05:35:03;5.25;;;3.20;;
30635;SDS011;17400;52.392;9.750;2023-06-01T05:37:32;7.22;;;3.90;;
30635;SDS011;17400;52.392;9.750;2023-06-01T05:40:00;5.50;;;3.60;;
30635;SDS011;17400;52.392;9.750;2023-06-01T05:42:41;5.13;;;2.58;;
30635;SDS011;17400;52.392;9.750;2023-06-01T05:45:10;6.05;;;3.05;;
30635;SDS011;17400;52.392;9.750;2023-06-01T05:47:38;7.25;;;3.55;;
30635;SDS011;17400;52.392;9.750;2023-06-01T05:50:06;7.22;;;2.85;;
30635;SDS011;17400;52.392;9.750;2023-06-01T05:52:45;8.48;;;3.67;;
30635;SDS011;17400;52.392;9.750;2023-06-01T05:55:13;5.90;;;3.28;;
30635;SDS011;17400;52.392;9.750;2023-06-01T05:57:42;7.68;;;3.85;;
30635;SDS011;17400;52.392;9.750;2023-06-01T06:00:12;10.80;;;4.60;;
30635;SDS011;17400;52.392;9.750;2023-06-01T06:02:42;9.75;;;3.78;;
30635;SDS011;17400;52.392;9.750;2023-06-01T06:05:10;6.43;;;4.32;;
30635;SDS011;17400;52.392;9.750;2023-06-01T06:07:38;8.32;;;4.00;;
30635;SDS011;17400;52.392;9.750;2023-06-01T06:10:06;5.15;;;3.00;;
30635;SDS011;17400;52.392;9.750;2023-06-01T06:12:41;13.80;;;3.60;;
30635;SDS011;17400;52.392;9.750;2023-06-01T06:15:09;9.38;;;3.72;;
30635;SDS011;17400;52.392;9.750;2023-06-01T06:17:37;10.95;;;3.85;;
30635;SDS011;17400;52.392;9.750;2023-06-01T06:20:06;7.63;;;3.67;;
30635;SDS011;17400;52.392;9.750;2023-06-01T06:22:34;6.03;;;3.45;;
30635;SDS011;17400;52.392;9.750;2023-06-01T06:25:02;8.90;;;4.15;;
30635;SDS011;17400;52.392;9.750;2023-06-01T06:27:31;11.25;;;4.38;;
30635;SDS011;17400;52.392;9.750;2023-06-01T06:30:00;8.98;;;4.68;;
30635;SDS011;17400;52.392;9.750;2023-06-01T06:32:31;6.07;;;3.85;;
30635;SDS011;17400;52.392;9.750;2023-06-01T06:34:58;8.70;;;4.03;;
30635;SDS011;17400;52.392;9.750;2023-06-01T06:37:27;11.05;;;3.97;;
30635;SDS011;17400;52.392;9.750;2023-06-01T06:39:55;11.43;;;4.93;;
30635;SDS011;17400;52.392;9.750;2023-06-01T06:42:23;8.27;;;4.22;;
30635;SDS011;17400;52.392;9.750;2023-06-01T06:44:51;9.45;;;5.55;;
30635;SDS011;17400;52.392;9.750;2023-06-01T06:47:21;9.02;;;5.07;;
30635;SDS011;17400;52.392;9.750;2023-06-01T06:49:48;7.95;;;4.65;;
30635;SDS011;17400;52.392;9.750;2023-06-01T06:52:16;10.52;;;5.45;;
30635;SDS011;17400;52.392;9.750;2023-06-01T06:54:44;8.18;;;4.20;;
30635;SDS011;17400;52.392;9.750;2023-06-01T06:57:12;10.05;;;4.50;;
30635;SDS011;17400;52.392;9.750;2023-06-01T06:59:40;9.32;;;4.18;;
30635;SDS011;17400;52.392;9.750;2023-06-01T07:02:07;9.57;;;4.82;;
30635;SDS011;17400;52.392;9.750;2023-06-01T07:04:37;9.63;;;4.53;;
30635;SDS011;17400;52.392;9.750;2023-06-01T07:07:06;10.10;;;5.38;;
30635;SDS011;17400;52.392;9.750;2023-06-01T07:09:34;9.75;;;5.35;;
30635;SDS011;17400;52.392;9.750;2023-06-01T07:12:01;8.15;;;4.72;;
30635;SDS011;17400;52.392;9.750;2023-06-01T07:14:30;8.52;;;5.00;;
30635;SDS011;17400;52.392;9.750;2023-06-01T07:16:58;11.38;;;6.97;;
30635;SDS011;17400;52.392;9.750;2023-06-01T07:19:26;10.55;;;6.03;;
30635;SDS011;17400;52.392;9.750;2023-06-01T07:22:00;12.68;;;7.20;;
30635;SDS011;17400;52.392;9.750;2023-06-01T07:24:29;12.40;;;6.10;;
30635;SDS011;17400;52.392;9.750;2023-06-01T07:26:57;10.57;;;6.50;;
30635;SDS011;17400;52.392;9.750;2023-06-01T07:29:26;12.27;;;5.53;;
30635;SDS011;17400;52.392;9.750;2023-06-01T07:31:54;8.98;;;5.72;;
30635;SDS011;17400;52.392;9.750;2023-06-01T07:34:22;11.55;;;6.30;;
30635;SDS011;17400;52.392;9.750;2023-06-01T07:36:51;11.25;;;5.65;;
30635;SDS011;17400;52.392;9.750;2023-06-01T07:39:31;12.82;;;6.03;;
30635;SDS011;17400;52.392;9.750;2023-06-01T07:41:59;16.20;;;6.20;;
30635;SDS011;17400;52.392;9.750;2023-06-01T07:44:27;10.80;;;5.93;;
30635;SDS011;17400;52.392;9.750;2023-06-01T07:46:55;12.40;;;6.45;;
30635;SDS011;17400;52.392;9.750;2023-06-01T07:49:22;16.33;;;7.38;;
30635;SDS011;17400;52.392;9.750;2023-06-01T07:51:50;10.18;;;6.32;;
30635;SDS011;17400;52.392;9.750;2023-06-01T07:54:19;10.77;;;5.80;;
30635;SDS011;17400;52.392;9.750;2023-06-01T07:56:48;12.23;;;6.53;;
30635;SDS011;17400;52.392;9.750;2023-06-01T07:59:17;16.33;;;6.45;;
30635;SDS011;17400;52.392;9.750;2023-06-01T08:01:45;14.23;;;7.03;;
30635;SDS011;17400;52.392;9.750;2023-06-01T08:04:16;13.35;;;6.80;;
30635;SDS011;17400;52.392;9.750;2023-06-01T08:06:47;13.88;;;6.13;;
30635;SDS011;17400;52.392;9.750;2023-06-01T08:09:15;10.50;;;6.80;;
30635;SDS011;17400;52.392;9.750;2023-06-01T08:11:42;8.93;;;6.07;;
30635;SDS011;17400;52.392;9.750;2023-06-01T08:14:12;9.43;;;5.15;;
30635;SDS011;17400;52.392;9.750;2023-06-01T08:16:39;13.48;;;6.05;;
30635;SDS011;17400;52.392;9.750;2023-06-01T08:19:07;7.15;;;4.72;;
30635;SDS011;17400;52.392;9.750;2023-06-01T08:21:35;9.82;;;6.00;;
30635;SDS011;17400;52.392;9.750;2023-06-01T08:24:03;10.27;;;5.72;;
30635;SDS011;17400;52.392;9.750;2023-06-01T08:26:31;9.68;;;6.03;;
30635;SDS011;17400;52.392;9.750;2023-06-01T08:28:59;10.48;;;6.53;;
30635;SDS011;17400;52.392;9.750;2023-06-01T08:31:28;12.68;;;5.35;;
30635;SDS011;17400;52.392;9.750;2023-06-01T08:33:56;11.90;;;5.38;;
30635;SDS011;17400;52.392;9.750;2023-06-01T08:36:24;11.23;;;5.80;;
30635;SDS011;17400;52.392;9.750;2023-06-01T08:38:53;14.27;;;6.22;;
30635;SDS011;17400;52.392;9.750;2023-06-01T08:41:24;5.85;;;4.10;;
30635;SDS011;17400;52.392;9.750;2023-06-01T08:43:58;7.82;;;4.55;;
30635;SDS011;17400;52.392;9.750;2023-06-01T08:46:31;8.95;;;5.03;;
30635;SDS011;17400;52.392;9.750;2023-06-01T08:48:59;9.10;;;4.93;;
30635;SDS011;17400;52.392;9.750;2023-06-01T08:51:28;7.00;;;4.50;;
30635;SDS011;17400;52.392;9.750;2023-06-01T08:54:00;9.70;;;4.32;;
30635;SDS011;17400;52.392;9.750;2023-06-01T08:56:31;7.22;;;3.65;;
30635;SDS011;17400;52.392;9.750;2023-06-01T08:58:59;8.70;;;3.67;;
30635;SDS011;17400;52.392;9.750;2023-06-01T09:01:28;7.90;;;3.80;;
30635;SDS011;17400;52.392;9.750;2023-06-01T09:03:58;6.88;;;3.28;;
30635;SDS011;17400;52.392;9.750;2023-06-01T09:06:26;7.93;;;4.47;;
30635;SDS011;17400;52.392;9.750;2023-06-01T09:08:54;5.95;;;2.97;;
30635;SDS011;17400;52.392;9.750;2023-06-01T09:11:22;5.65;;;3.13;;
30635;SDS011;17400;52.392;9.750;2023-06-01T09:13:50;7.00;;;3.08;;
30635;SDS011;17400;52.392;9.750;2023-06-01T09:16:17;6.60;;;3.72;;
30635;SDS011;17400;52.392;9.750;2023-06-01T09:18:51;4.90;;;2.45;;
30635;SDS011;17400;52.392;9.750;2023-06-01T09:21:21;5.63;;;2.40;;
30635;SDS011;17400;52.392;9.750;2023-06-01T09:23:49;3.47;;;2.10;;
30635;SDS011;17400;52.392;9.750;2023-06-01T09:26:17;4.35;;;2.47;;
30635;SDS011;17400;52.392;9.750;2023-06-01T09:28:54;5.03;;;2.42;;
30635;SDS011;17400;52.392;9.750;2023-06-01T09:31:34;3.83;;;2.10;;
30635;SDS011;17400;52.392;9.750;2023-06-01T09:34:03;2.67;;;1.45;;
30635;SDS011;17400;52.392;9.750;2023-06-01T09:36:33;2.38;;;1.33;;
30635;SDS011;17400;52.392;9.750;2023-06-01T09:39:03;4.03;;;2.35;;
30635;SDS011;17400;52.392;9.750;2023-06-01T09:41:48;4.90;;;2.25;;
30635;SDS011;17400;52.392;9.750;2023-06-01T09:44:25;5.15;;;3.47;;
30635;SDS011;17400;52.392;9.750;2023-06-01T09:46:54;3.33;;;1.98;;
30635;SDS011;17400;52.392;9.750;2023-06-01T09:49:24;6.47;;;2.30;;
30635;SDS011;17400;52.392;9.750;2023-06-01T09:52:07;5.13;;;2.65;;
30635;SDS011;17400;52.392;9.750;2023-06-01T09:54:39;4.15;;;2.35;;
30635;SDS011;17400;52.392;9.750;2023-06-01T09:57:08;3.90;;;1.50;;
30635;SDS011;17400;52.392;9.750;2023-06-01T09:59:39;3.83;;;1.90;;
30635;SDS011;17400;52.392;9.750;2023-06-01T10:02:11;2.95;;;1.70;;
30635;SDS011;17400;52.392;9.750;2023-06-01T10:04:44;4.90;;;1.75;;
30635;SDS011;17400;52.392;9.750;2023-06-01T10:07:16;3.30;;;1.77;;
30635;SDS011;17400;52.392;9.750;2023-06-01T10:09:46;3.65;;;1.88;;
30635;SDS011;17400;52.392;9.750;2023-06-01T10:12:17;5.03;;;1.98;;
30635;SDS011;17400;52.392;9.750;2023-06-01T10:14:45;3.67;;;1.70;;
30635;SDS011;17400;52.392;9.750;2023-06-01T10:17:13;3.53;;;2.33;;
30635;SDS011;17400;52.392;9.750;2023-06-01T10:19:43;4.30;;;2.25;;
30635;SDS011;17400;52.392;9.750;2023-06-01T10:22:11;4.05;;;2.10;;
30635;SDS011;17400;52.392;9.750;2023-06-01T10:24:41;3.70;;;2.17;;
30635;SDS011;17400;52.392;9.750;2023-06-01T10:27:12;5.40;;;3.05;;
30635;SDS011;17400;52.392;9.750;2023-06-01T10:29:46;7.25;;;2.92;;
30635;SDS011;17400;52.392;9.750;2023-06-01T10:38:27;3.47;;;1.95;;
30635;SDS011;17400;52.392;9.750;2023-06-01T10:43:57;3.85;;;1.63;;
30635;SDS011;17400;52.392;9.750;2023-06-01T10:46:39;2.15;;;1.60;;
30635;SDS011;17400;52.392;9.750;2023-06-01T10:49:11;4.07;;;1.80;;
30635;SDS011;17400;52.392;9.750;2023-06-01T10:51:39;4.50;;;2.17;;
30635;SDS011;17400;52.392;9.750;2023-06-01T10:54:26;3.17;;;1.98;;
30635;SDS011;17400;52.392;9.750;2023-06-01T11:02:43;4.20;;;1.83;;
30635;SDS011;17400;52.392;9.750;2023-06-01T11:08:06;3.28;;;2.45;;
30635;SDS011;17400;52.392;9.750;2023-06-01T11:10:55;4.47;;;3.15;;
30635;SDS011;17400;52.392;9.750;2023-06-01T11:13:27;3.95;;;2.05;;
30635;SDS011;17400;52.392;9.750;2023-06-01T11:18:57;2.83;;;1.70;;
30635;SDS011;17400;52.392;9.750;2023-06-01T11:21:27;4.43;;;2.25;;
30635;SDS011;17400;52.392;9.750;2023-06-01T11:23:56;3.42;;;1.90;;
30635;SDS011;17400;52.392;9.750;2023-06-01T11:26:29;4.85;;;2.50;;
30635;SDS011;17400;52.392;9.750;2023-06-01T11:29:06;5.40;;;2.55;;
30635;SDS011;17400;52.392;9.750;2023-06-01T11:31:36;3.00;;;2.00;;
30635;SDS011;17400;52.392;9.750;2023-06-01T11:34:06;4.45;;;3.03;;
30635;SDS011;17400;52.392;9.750;2023-06-01T11:36:35;2.70;;;2.10;;
30635;SDS011;17400;52.392;9.750;2023-06-01T11:39:04;3.13;;;2.28;;
30635;SDS011;17400;52.392;9.750;2023-06-01T11:41:46;5.03;;;2.60;;
30635;SDS011;17400;52.392;9.750;2023-06-01T11:44:15;4.32;;;2.45;;
30635;SDS011;17400;52.392;9.750;2023-06-01T11:46:53;4.95;;;2.67;;
30635;SDS011;17400;52.392;9.750;2023-06-01T11:49:23;5.18;;;2.22;;
30635;SDS011;17400;52.392;9.750;2023-06-01T11:51:51;5.57;;;2.90;;
30635;SDS011;17400;52.392;9.750;2023-06-01T11:54:23;7.93;;;3.08;;
30635;SDS011;17400;52.392;9.750;2023-06-01T11:56:54;9.65;;;3.13;;
30635;SDS011;17400;52.392;9.750;2023-06-01T11:59:26;5.05;;;2.78;;
30635;SDS011;17400;52.392;9.750;2023-06-01T12:01:55;3.83;;;2.90;;
30635;SDS011;17400;52.392;9.750;2023-06-01T12:04:24;8.55;;;3.35;;
30635;SDS011;17400;52.392;9.750;2023-06-01T12:07:03;5.10;;;3.63;;
30635;SDS011;17400;52.392;9.750;2023-06-01T12:09:33;5.72;;;3.25;;
30635;SDS011;17400;52.392;9.750;2023-06-01T12:12:02;5.18;;;3.08;;
30635;SDS011;17400;52.392;9.750;2023-06-01T12:14:31;4.55;;;3.00;;
30635;SDS011;17400;52.392;9.750;2023-06-01T12:16:59;3.63;;;2.72;;
30635;SDS011;17400;52.392;9.750;2023-06-01T12:19:29;8.43;;;3.47;;
30635;SDS011;17400;52.392;9.750;2023-06-01T12:21:58;5.32;;;3.60;;
30635;SDS011;17400;52.392;9.750;2023-06-01T12:24:28;8.02;;;3.42;;
30635;SDS011;17400;52.392;9.750;2023-06-01T12:26:59;6.07;;;2.88;;
30635;SDS011;17400;52.392;9.750;2023-06-01T12:29:35;6.53;;;3.05;;
30635;SDS011;17400;52.392;9.750;2023-06-01T12:32:04;4.15;;;2.50;;
30635;SDS011;17400;52.392;9.750;2023-06-01T12:34:33;3.78;;;2.40;;
30635;SDS011;17400;52.392;9.750;2023-06-01T12:37:13;4.22;;;2.42;;
30635;SDS011;17400;52.392;9.750;2023-06-01T12:39:42;5.65;;;3.45;;
30635;SDS011;17400;52.392;9.750;2023-06-01T12:42:10;7.82;;;3.28;;
30635;SDS011;17400;52.392;9.750;2023-06-01T12:44:40;6.93;;;3.15;;
30635;SDS011;17400;52.392;9.750;2023-06-01T12:47:08;4.47;;;2.65;;
30635;SDS011;17400;52.392;9.750;2023-06-01T12:49:36;6.00;;;2.80;;
30635;SDS011;17400;52.392;9.750;2023-06-01T12:52:06;5.97;;;2.40;;
30635;SDS011;17400;52.392;9.750;2023-06-01T12:54:35;3.38;;;2.25;;
30635;SDS011;17400;52.392;9.750;2023-06-01T12:57:03;4.28;;;2.55;;
30635;SDS011;17400;52.392;9.750;2023-06-01T12:59:42;3.35;;;2.28;;
30635;SDS011;17400;52.392;9.750;2023-06-01T13:02:09;8.30;;;3.10;;
30635;SDS011;17400;52.392;9.750;2023-06-01T13:04:40;4.38;;;2.83;;
30635;SDS011;17400;52.392;9.750;2023-06-01T13:07:08;3.72;;;2.28;;
30635;SDS011;17400;52.392;9.750;2023-06-01T13:09:36;2.75;;;2.10;;
30635;SDS011;17400;52.392;9.750;2023-06-01T13:12:04;5.15;;;2.40;;
30635;SDS011;17400;52.392;9.750;2023-06-01T13:14:33;3.47;;;2.00;;
30635;SDS011;17400;52.392;9.750;2023-06-01T13:17:02;9.57;;;2.97;;
30635;SDS011;17400;52.392;9.750;2023-06-01T13:19:31;4.15;;;2.58;;
30635;SDS011;17400;52.392;9.750;2023-06-01T13:21:59;6.68;;;3.05;;
30635;SDS011;17400;52.392;9.750;2023-06-01T13:24:27;3.88;;;2.05;;
30635;SDS011;17400;52.392;9.750;2023-06-01T13:27:09;3.13;;;2.10;;
30635;SDS011;17400;52.392;9.750;2023-06-01T13:29:38;2.65;;;1.85;;
30635;SDS011;17400;52.392;9.750;2023-06-01T13:32:07;6.22;;;2.53;;
30635;SDS011;17400;52.392;9.750;2023-06-01T13:34:36;5.03;;;2.53;;
30635;SDS011;17400;52.392;9.750;2023-06-01T13:37:04;4.28;;;2.28;;
30635;SDS011;17400;52.392;9.750;2023-06-01T13:39:32;6.05;;;2.42;;
30635;SDS011;17400;52.392;9.750;2023-06-01T13:42:00;4.22;;;2.40;;
30635;SDS011;17400;52.392;9.750;2023-06-01T13:44:31;4.15;;;2.28;;
30635;SDS011;17400;52.392;9.750;2023-06-01T13:47:00;4.20;;;2.15;;
30635;SDS011;17400;52.392;9.750;2023-06-01T13:49:30;3.42;;;2.17;;
30635;SDS011;17400;52.392;9.750;2023-06-01T13:51:59;3.40;;;1.90;;
30635;SDS011;17400;52.392;9.750;2023-06-01T13:54:27;4.40;;;1.77;;
30635;SDS011;17400;52.392;9.750;2023-06-01T13:56:55;3.88;;;2.30;;
30635;SDS011;17400;52.392;9.750;2023-06-01T13:59:23;9.13;;;3.60;;
30635;SDS011;17400;52.392;9.750;2023-06-01T14:01:51;6.50;;;3.92;;
30635;SDS011;17400;52.392;9.750;2023-06-01T14:04:18;6.00;;;3.17;;
30635;SDS011;17400;52.392;9.750;2023-06-01T14:06:48;5.05;;;3.17;;
30635;SDS011;17400;52.392;9.750;2023-06-01T14:09:16;4.63;;;3.15;;
30635;SDS011;17400;52.392;9.750;2023-06-01T14:11:44;4.28;;;2.25;;
30635;SDS011;17400;52.392;9.750;2023-06-01T14:14:13;4.95;;;3.30;;
30635;SDS011;17400;52.392;9.750;2023-06-01T14:16:41;3.72;;;2.65;;
30635;SDS011;17400;52.392;9.750;2023-06-01T14:19:12;5.50;;;2.67;;
30635;SDS011;17400;52.392;9.750;2023-06-01T14:21:41;5.18;;;2.70;;
30635;SDS011;17400;52.392;9.750;2023-06-01T14:24:10;4.28;;;2.92;;
30635;SDS011;17400;52.392;9.750;2023-06-01T14:26:38;5.47;;;3.38;;
30635;SDS011;17400;52.392;9.750;2023-06-01T14:29:06;5.28;;;2.53;;
30635;SDS011;17400;52.392;9.750;2023-06-01T14:31:34;8.27;;;3.13;;
30635;SDS011;17400;52.392;9.750;2023-06-01T14:34:02;6.75;;;3.08;;
30635;SDS011;17400;52.392;9.750;2023-06-01T14:36:30;7.05;;;3.15;;
30635;SDS011;17400;52.392;9.750;2023-06-01T14:39:13;8.60;;;3.08;;
30635;SDS011;17400;52.392;9.750;2023-06-01T14:41:41;7.65;;;4.10;;
30635;SDS011;17400;52.392;9.750;2023-06-01T14:44:11;4.80;;;2.75;;
30635;SDS011;17400;52.392;9.750;2023-06-01T14:46:39;7.20;;;3.83;;
30635;SDS011;17400;52.392;9.750;2023-06-01T14:49:08;5.22;;;3.15;;
30635;SDS011;17400;52.392;9.750;2023-06-01T14:51:36;6.47;;;3.55;;
30635;SDS011;17400;52.392;9.750;2023-06-01T14:54:04;6.75;;;2.85;;
30635;SDS011;17400;52.392;9.750;2023-06-01T14:56:33;6.13;;;3.17;;
30635;SDS011;17400;52.392;9.750;2023-06-01T14:59:01;7.22;;;3.70;;
30635;SDS011;17400;52.392;9.750;2023-06-01T15:01:29;5.13;;;3.20;;
30635;SDS011;17400;52.392;9.750;2023-06-01T15:03:57;5.82;;;2.88;;
30635;SDS011;17400;52.392;9.750;2023-06-01T15:06:25;6.03;;;3.15;;
30635;SDS011;17400;52.392;9.750;2023-06-01T15:08:52;5.13;;;3.50;;
30635;SDS011;17400;52.392;9.750;2023-06-01T15:11:20;6.80;;;3.53;;
30635;SDS011;17400;52.392;9.750;2023-06-01T15:13:50;7.55;;;3.15;;
30635;SDS011;17400;52.392;9.750;2023-06-01T15:16:19;7.80;;;3.60;;
30635;SDS011;17400;52.392;9.750;2023-06-01T15:18:47;8.68;;;4.40;;
30635;SDS011;17400;52.392;9.750;2023-06-01T15:21:15;8.73;;;4.50;;
30635;SDS011;17400;52.392;9.750;2023-06-01T15:23:43;6.22;;;3.15;;